Time;durP1;ratioP1;P1;durP2;ratioP2;P2;SDS_P1;SDS_P2;PMS_P1;PMS_P2;Temp;Humidity;BMP_temperature;BMP_pressure;BME280_temperature;BME280_humidity;BME280_pressure;Samples;Min_cycle;Max_cycle;Signal;HPM_P1;HPM_P2
2022/05/06 00:00:14;;;;;;;59.60;37.37;;;17.00;55.30;;;;;;4990400;28;20309;-69
2022/05/06 00:02:40;;;;;;;68.73;38.70;;;17.00;56.00;;;;;;4990535;28;20441;-69
2022/05/06 00:05:07;;;;;;;64.63;37.30;;;16.90;55.80;;;;;;4988301;28;20957;-69
2022/05/06 00:07:33;;;;;;;64.40;38.73;;;16.90;56.70;;;;;;4990161;28;20557;-69
2022/05/06 00:10:01;;;;;;;77.50;39.27;;;16.90;57.40;;;;;;4990918;28;20810;-69
2022/05/06 00:12:27;;;;;;;68.47;40.37;;;17.10;56.60;;;;;;4991680;28;20458;-69
2022/05/06 00:14:53;;;;;;;74.47;39.80;;;17.10;57.00;;;;;;4989800;28;20487;-69
2022/05/06 00:17:19;;;;;;;73.83;36.90;;;17.00;57.30;;;;;;4989934;28;20531;-70
2022/05/06 00:19:45;;;;;;;73.80;38.67;;;17.10;57.40;;;;;;4987144;28;20433;-70
2022/05/06 00:22:11;;;;;;;68.73;39.20;;;16.80;58.00;;;;;;4990462;28;20195;-71
2022/05/06 00:24:37;;;;;;;64.40;37.23;;;16.80;58.60;;;;;;4991582;28;20421;-70
2022/05/06 00:27:04;;;;;;;72.23;36.60;;;16.90;58.00;;;;;;4986444;28;20468;-70
2022/05/06 00:29:29;;;;;;;66.70;38.27;;;16.90;56.50;;;;;;4991853;28;20413;-71
2022/05/06 00:31:55;;;;;;;71.30;37.43;;;17.00;57.10;;;;;;4991628;28;20433;-70
2022/05/06 00:34:20;;;;;;;76.93;39.50;;;17.00;56.60;;;;;;4991504;28;20616;-71
2022/05/06 00:36:46;;;;;;;74.60;38.73;;;17.00;56.70;;;;;;4992027;28;20284;-69
2022/05/06 00:39:12;;;;;;;70.57;39.83;;;17.00;57.60;;;;;;4994502;28;20196;-71
2022/05/06 00:41:37;;;;;;;72.37;37.57;;;17.00;56.40;;;;;;4994422;28;20186;-70
2022/05/06 00:44:07;;;;;;;69.07;39.17;;;16.90;57.80;;;;;;4994943;28;20170;-71
2022/05/06 00:46:36;;;;;;;65.37;37.97;;;16.90;55.00;;;;;;4993918;28;20194;-70
2022/05/06 00:49:03;;;;;;;69.20;37.83;;;17.00;55.10;;;;;;4993757;28;20440;-70
2022/05/06 00:51:29;;;;;;;68.13;38.07;;;17.00;53.50;;;;;;4993210;28;20433;-70
2022/05/06 00:53:56;;;;;;;66.47;36.80;;;16.90;55.00;;;;;;4994962;28;20413;-71
2022/05/06 00:56:26;;;;;;;74.17;38.57;;;16.90;56.10;;;;;;4993780;28;20469;-70
2022/05/06 00:58:52;;;;;;;68.27;38.13;;;16.90;56.40;;;;;;4993565;28;20489;-71
2022/05/06 01:01:18;;;;;;;66.07;38.20;;;16.90;55.40;;;;;;4994898;28;20422;-71
2022/05/06 01:03:45;;;;;;;72.67;38.67;;;16.90;56.90;;;;;;4994211;28;20428;-70
2022/05/06 01:06:13;;;;;;;71.50;37.93;;;16.90;56.00;;;;;;4993116;28;20491;-70
2022/05/06 01:08:43;;;;;;;73.53;39.33;;;16.90;55.90;;;;;;4989721;28;20493;-69
2022/05/06 01:11:12;;;;;;;66.73;37.33;;;16.90;56.30;;;;;;4994153;28;20460;-71
2022/05/06 01:13:39;;;;;;;66.43;37.00;;;17.00;55.10;;;;;;4994553;28;20468;-70
2022/05/06 01:16:05;;;;;;;66.17;36.90;;;17.00;55.00;;;;;;4994047;28;20441;-71
2022/05/06 01:18:30;;;;;;;65.33;37.30;;;16.90;55.90;;;;;;4992368;28;20483;-70
2022/05/06 01:20:59;;;;;;;70.77;39.13;;;16.90;57.00;;;;;;4992241;28;20201;-71
2022/05/06 01:23:25;;;;;;;70.30;36.43;;;16.90;57.60;;;;;;4984841;28;20196;-72
2022/05/06 01:25:51;;;;;;;68.97;38.60;;;16.80;57.90;;;;;;4993199;28;20434;-70
2022/05/06 01:28:20;;;;;;;78.60;41.47;;;16.80;58.50;;;;;;4994289;28;20302;-71
2022/05/06 01:30:47;;;;;;;75.13;39.10;;;16.90;57.90;;;;;;4994145;28;20440;-70
2022/05/06 01:33:15;;;;;;;76.03;41.83;;;16.90;57.40;;;;;;4993582;28;20433;-71
2022/05/06 01:35:43;;;;;;;77.50;39.30;;;17.00;57.20;;;;;;4993778;28;20448;-71
2022/05/06 01:38:11;;;;;;;74.93;38.70;;;17.10;55.20;;;;;;4991257;28;20581;-71
2022/05/06 01:40:42;;;;;;;66.93;38.87;;;17.00;55.10;;;;;;4990172;28;20536;-71
2022/05/06 01:43:11;;;;;;;69.47;38.20;;;16.90;55.60;;;;;;4990829;28;20429;-71
2022/05/06 01:45:38;;;;;;;81.50;40.03;;;16.70;56.70;;;;;;4992238;28;20441;-70
2022/05/06 01:48:04;;;;;;;75.30;41.17;;;16.70;56.80;;;;;;4993700;28;20437;-71
2022/05/06 01:50:37;;;;;;;71.97;41.33;;;16.70;56.60;;;;;;4992754;28;20429;-69
2022/05/06 01:53:03;;;;;;;77.27;40.40;;;16.80;57.00;;;;;;4992558;28;20488;-70
2022/05/06 01:55:28;;;;;;;78.53;39.90;;;16.90;55.60;;;;;;4992474;28;20448;-71
2022/05/06 01:57:54;;;;;;;81.37;40.97;;;16.80;55.70;;;;;;4992298;28;20480;-70
2022/05/06 02:00:20;;;;;;;73.60;39.87;;;16.70;55.10;;;;;;4993900;28;20182;-70
2022/05/06 02:02:45;;;;;;;79.27;42.60;;;16.60;56.00;;;;;;4991590;28;20209;-70
2022/05/06 02:05:17;;;;;;;73.20;39.33;;;16.40;56.80;;;;;;4985316;28;20209;-70
2022/05/06 02:07:44;;;;;;;78.90;40.80;;;16.50;57.80;;;;;;4993814;28;20291;-69
2022/05/06 02:10:10;;;;;;;69.60;39.30;;;16.70;57.60;;;;;;4991484;28;20450;-71
2022/05/06 02:12:36;;;;;;;70.83;40.83;;;16.90;55.00;;;;;;4990492;28;20527;-70
2022/05/06 02:15:02;;;;;;;81.30;42.47;;;17.00;53.80;;;;;;4992464;28;20444;-70
2022/05/06 02:17:27;;;;;;;70.23;41.03;;;17.00;55.10;;;;;;4992314;28;20244;-70
2022/05/06 02:19:53;;;;;;;94.23;42.77;;;16.90;55.00;;;;;;4992502;28;20465;-70
2022/05/06 02:22:19;;;;;;;89.47;44.77;;;16.90;55.60;;;;;;4992562;28;20551;-70
2022/05/06 02:24:45;;;;;;;78.73;41.60;;;16.90;57.00;;;;;;4991653;28;20549;-69
2022/05/06 02:27:13;;;;;;;82.10;41.57;;;16.80;57.20;;;;;;4992018;28;20520;-71
2022/05/06 02:33:12;;;;;;;81.33;41.97;;;17.00;54.60;;;;;;4993201;28;20840;-71
2022/05/06 02:35:09;;;;;;;76.97;43.80;;;16.90;57.30;;;;;;4991009;28;20447;-70
2022/05/06 02:37:35;;;;;;;84.73;40.80;;;16.90;56.90;;;;;;4993116;28;20472;-71
2022/05/06 02:40:01;;;;;;;74.20;41.80;;;17.00;54.60;;;;;;4991308;28;20841;-69
2022/05/06 02:42:26;;;;;;;77.17;42.07;;;17.00;54.10;;;;;;4990788;28;20187;-71
2022/05/06 02:44:52;;;;;;;81.43;42.60;;;17.20;53.60;;;;;;4989737;28;20429;-71
2022/05/06 02:47:18;;;;;;;84.90;43.50;;;17.10;54.30;;;;;;4984684;28;20198;-71
2022/05/06 02:49:43;;;;;;;87.67;43.47;;;17.10;54.30;;;;;;4993015;28;20265;-71
2022/05/06 02:52:09;;;;;;;86.57;42.87;;;17.00;55.40;;;;;;4992630;28;20216;-70
2022/05/06 02:54:35;;;;;;;87.00;43.20;;;17.00;56.20;;;;;;4991996;28;20178;-70
2022/05/06 02:57:02;;;;;;;83.67;43.53;;;17.10;55.90;;;;;;4990625;28;20240;-70
2022/05/06 02:59:31;;;;;;;77.20;42.33;;;17.10;55.20;;;;;;4984825;28;20440;-70
2022/05/06 03:01:57;;;;;;;75.63;41.60;;;17.00;55.80;;;;;;4991818;28;20919;-69
2022/05/06 03:04:22;;;;;;;76.03;40.77;;;16.90;55.00;;;;;;4992466;28;20416;-71
2022/05/06 03:06:48;;;;;;;75.43;41.43;;;16.90;55.80;;;;;;4989181;28;20444;-71
2022/05/06 03:09:14;;;;;;;81.00;41.80;;;16.90;56.30;;;;;;4983917;28;20289;-69
2022/05/06 03:11:40;;;;;;;81.03;42.90;;;16.90;56.70;;;;;;4991934;28;20702;-71
2022/05/06 03:14:05;;;;;;;85.23;41.83;;;16.90;55.80;;;;;;4991489;28;20196;-70
2022/05/06 03:16:31;;;;;;;84.07;42.30;;;16.80;56.40;;;;;;4990396;28;20194;-68
2022/05/06 03:18:59;;;;;;;80.83;42.60;;;16.80;56.30;;;;;;4991106;28;20632;-68
2022/05/06 03:21:26;;;;;;;89.60;44.47;;;16.80;56.30;;;;;;4991351;28;20178;-68
2022/05/06 03:23:51;;;;;;;102.03;44.40;;;16.80;57.00;;;;;;4990855;28;20441;-68
2022/05/06 03:26:17;;;;;;;87.27;45.17;;;16.80;55.90;;;;;;4990265;28;20460;-68
2022/05/06 03:28:44;;;;;;;87.30;43.60;;;16.80;56.40;;;;;;4985615;28;20270;-68
2022/05/06 03:31:13;;;;;;;88.40;45.67;;;16.80;56.90;;;;;;4988640;28;20259;-68
2022/05/06 03:33:41;;;;;;;88.00;43.10;;;16.80;56.80;;;;;;4991568;28;20460;-68
2022/05/06 03:36:09;;;;;;;84.87;42.40;;;16.80;56.80;;;;;;4992177;28;20417;-69
2022/05/06 03:38:35;;;;;;;87.00;45.27;;;16.80;57.60;;;;;;4990405;28;20523;-71
2022/05/06 03:41:01;;;;;;;82.17;42.50;;;16.80;57.20;;;;;;4977664;28;20950;-68
2022/05/06 03:43:27;;;;;;;95.43;44.90;;;16.80;56.90;;;;;;4991431;28;20186;-68
2022/05/06 03:45:53;;;;;;;92.20;44.13;;;16.80;57.30;;;;;;4992116;28;20185;-68
2022/05/06 03:48:24;;;;;;;91.43;45.10;;;16.80;57.90;;;;;;4989873;28;20472;-68
2022/05/06 03:53:38;;;;;;;82.47;43.33;;;16.80;57.50;;;;;;4990824;28;20412;-70
2022/05/06 03:56:04;;;;;;;78.90;41.07;;;16.70;57.30;;;;;;4992008;28;20945;-68
2022/05/06 03:58:30;;;;;;;92.03;45.13;;;16.70;58.00;;;;;;4990018;28;20912;-69
2022/05/06 04:00:56;;;;;;;88.43;44.20;;;16.90;57.10;;;;;;4990296;28;20436;-70
2022/05/06 04:03:22;;;;;;;76.77;41.63;;;16.90;56.80;;;;;;4979110;28;20436;-69
2022/05/06 04:05:48;;;;;;;74.67;40.27;;;16.70;58.20;;;;;;4991701;28;20185;-69
2022/05/06 04:08:13;;;;;;;82.07;41.70;;;16.70;58.90;;;;;;4990613;28;20456;-70
2022/05/06 04:10:39;;;;;;;84.13;44.17;;;16.80;58.50;;;;;;4992037;28;20269;-68
2022/05/06 04:13:05;;;;;;;79.17;42.43;;;16.90;57.00;;;;;;4994341;28;20244;-68
2022/05/06 04:15:33;;;;;;;82.83;42.53;;;15.50;52.70;;;;;;4995297;28;20182;-68
2022/05/06 04:18:02;;;;;;;85.73;42.77;;;17.10;53.60;;;;;;4990086;28;20252;-68
2022/05/06 04:23:30;;;;;;;99.77;45.90;;;16.90;57.40;;;;;;4992346;28;20432;-69
2022/05/06 04:26:01;;;;;;;89.40;44.03;;;16.80;59.00;;;;;;4992965;28;20480;-71
2022/05/06 04:28:27;;;;;;;75.73;41.70;;;16.80;58.00;;;;;;4991522;28;20464;-69
2022/05/06 04:30:54;;;;;;;86.03;45.57;;;16.70;58.60;;;;;;4994321;28;20444;-68
2022/05/06 04:33:20;;;;;;;88.10;42.30;;;16.80;58.30;;;;;;4994801;28;20423;-68
2022/05/06 04:35:46;;;;;;;77.07;42.50;;;16.80;58.90;;;;;;4994010;28;20496;-69
2022/05/06 04:38:12;;;;;;;80.97;43.30;;;16.80;58.30;;;;;;4992438;28;20530;-70
2022/05/06 04:40:40;;;;;;;84.23;42.27;;;16.80;59.40;;;;;;4993942;28;20428;-70
2022/05/06 04:43:07;;;;;;;75.33;40.37;;;17.10;55.10;;;;;;4993665;28;20931;-69
2022/05/06 04:45:45;;;;;;;75.53;40.80;;;17.40;52.40;;;;;;4994026;28;20441;-69
2022/05/06 04:48:12;;;;;;;78.87;41.70;;;17.20;54.00;;;;;;4994323;28;20449;-70
2022/05/06 04:50:39;;;;;;;70.70;40.20;;;17.00;56.30;;;;;;4993952;28;20954;-70
2022/05/06 04:53:07;;;;;;;72.43;38.73;;;17.00;54.70;;;;;;4993476;28;20433;-69
2022/05/06 04:55:37;;;;;;;82.13;39.80;;;17.00;54.50;;;;;;4994724;28;20471;-68
2022/05/06 04:58:03;;;;;;;86.40;42.17;;;17.00;55.10;;;;;;4991381;28;20849;-69
2022/05/06 05:00:29;;;;;;;78.53;40.90;;;17.20;54.30;;;;;;4975250;28;20406;-69
2022/05/06 05:02:55;;;;;;;77.67;41.77;;;17.00;55.30;;;;;;4986510;28;20595;-70
2022/05/06 05:05:21;;;;;;;79.30;41.30;;;17.10;54.40;;;;;;4994237;28;20984;-70
2022/05/06 05:07:46;;;;;;;75.47;41.43;;;17.20;53.20;;;;;;4991214;28;20241;-69
2022/05/06 05:10:12;;;;;;;81.03;41.23;;;17.10;55.20;;;;;;4985429;28;20438;-70
2022/05/06 05:12:38;;;;;;;73.23;38.87;;;17.10;53.70;;;;;;4992912;28;20213;-70
2022/05/06 05:15:04;;;;;;;76.80;39.57;;;17.30;52.50;;;;;;4992983;28;20177;-69
2022/05/06 05:17:30;;;;;;;74.83;39.33;;;16.90;53.30;;;;;;4992175;28;20210;-69
2022/05/06 05:19:56;;;;;;;73.80;38.07;;;16.60;57.90;;;;;;4993496;28;20447;-69
2022/05/06 05:22:22;;;;;;;72.87;40.10;;;16.90;56.10;;;;;;4991956;28;20440;-70
2022/05/06 05:24:47;;;;;;;62.57;37.57;;;17.20;53.20;;;;;;4994260;28;20195;-69
2022/05/06 05:27:14;;;;;;;61.10;36.87;;;17.30;52.90;;;;;;4994187;28;20202;-70
2022/05/06 05:29:41;;;;;;;68.87;35.80;;;17.00;54.30;;;;;;4992070;28;20285;-69
2022/05/06 05:32:08;;;;;;;63.20;36.10;;;16.60;54.90;;;;;;4992344;28;20445;-69
2022/05/06 05:34:34;;;;;;;68.83;36.03;;;16.40;57.30;;;;;;4991126;28;20417;-69
2022/05/06 05:37:00;;;;;;;63.77;36.63;;;16.10;59.10;;;;;;4992619;28;21298;-69
2022/05/06 05:39:26;;;;;;;76.83;37.80;;;16.30;58.60;;;;;;4992964;28;20301;-69
2022/05/06 05:41:52;;;;;;;71.00;36.97;;;16.10;62.10;;;;;;4989577;28;20998;-71
2022/05/06 05:49:47;;;;;;;64.20;34.57;;;16.40;57.70;;;;;;4992217;28;20449;-76
2022/05/06 05:52:12;;;;;;;57.03;31.27;;;16.50;58.40;;;;;;4987019;28;20438;-76
2022/05/06 05:54:38;;;;;;;56.00;34.30;;;16.10;57.90;;;;;;4990663;28;20561;-75
2022/05/06 05:57:05;;;;;;;58.00;34.07;;;16.40;57.80;;;;;;4991648;28;20477;-75
2022/05/06 05:59:30;;;;;;;67.33;38.10;;;16.60;57.50;;;;;;4989453;28;20422;-75
2022/05/06 06:01:56;;;;;;;66.33;34.17;;;16.80;56.20;;;;;;4991839;28;20440;-75
2022/05/06 06:04:22;;;;;;;57.87;34.93;;;17.20;53.10;;;;;;4982321;28;20212;-76
2022/05/06 06:06:48;;;;;;;55.60;33.73;;;17.60;52.10;;;;;;4993423;28;20190;-76
2022/05/06 06:09:14;;;;;;;64.23;36.80;;;17.60;50.50;;;;;;4993556;28;20221;-76
2022/05/06 06:11:40;;;;;;;76.13;36.30;;;17.30;54.40;;;;;;4990366;28;20919;-76
2022/05/06 06:14:05;;;;;;;57.97;35.93;;;17.30;54.30;;;;;;4992269;28;20545;-73
2022/05/06 06:16:31;;;;;;;57.87;34.37;;;17.30;53.30;;;;;;4992733;28;20257;-72
2022/05/06 06:18:58;;;;;;;64.53;36.07;;;17.20;55.30;;;;;;4993165;28;20234;-71
2022/05/06 06:21:26;;;;;;;69.30;34.77;;;17.20;56.30;;;;;;4988371;28;20659;-72
2022/05/06 06:23:53;;;;;;;58.93;35.87;;;17.20;55.30;;;;;;4987461;28;20430;-72
2022/05/06 06:26:18;;;;;;;49.20;30.60;;;17.30;55.40;;;;;;4990614;28;21000;-72
2022/05/06 06:28:44;;;;;;;53.77;29.63;;;17.10;51.40;;;;;;4989226;28;20481;-71
2022/05/06 06:31:10;;;;;;;56.80;30.33;;;16.90;51.10;;;;;;4989853;28;20242;-68
2022/05/06 06:33:38;;;;;;;50.10;29.50;;;16.70;55.60;;;;;;4989014;28;20267;-72
2022/05/06 06:36:08;;;;;;;50.77;30.67;;;16.40;53.50;;;;;;4990048;28;20166;-74
2022/05/06 06:38:34;;;;;;;48.97;29.73;;;16.10;57.90;;;;;;4989114;28;20481;-71
2022/05/06 06:40:59;;;;;;;46.93;30.20;;;16.40;57.70;;;;;;4990360;28;20799;-69
2022/05/06 06:43:26;;;;;;;53.70;31.33;;;16.90;55.00;;;;;;4988545;28;20549;-70
2022/05/06 06:45:52;;;;;;;48.40;30.27;;;17.20;54.10;;;;;;4988866;28;20175;-71
2022/05/06 06:48:18;;;;;;;50.70;30.43;;;17.40;52.30;;;;;;4987922;28;20493;-72
2022/05/06 06:50:44;;;;;;;48.40;31.27;;;17.60;52.30;;;;;;4991773;28;20459;-70
2022/05/06 06:53:10;;;;;;;59.10;30.40;;;17.70;50.40;;;;;;4991983;28;20648;-72
2022/05/06 06:55:36;;;;;;;53.83;29.47;;;17.80;51.00;;;;;;4992790;28;20417;-73
2022/05/06 06:58:02;;;;;;;57.13;28.77;;;17.90;50.00;;;;;;4992034;28;20478;-71
2022/05/06 07:00:28;;;;;;;47.93;28.43;;;17.90;50.30;;;;;;4991439;28;20482;-70
2022/05/06 07:02:55;;;;;;;44.60;27.20;;;18.30;51.00;;;;;;4988036;28;20468;-69
2022/05/06 07:05:22;;;;;;;48.50;27.87;;;17.80;49.70;;;;;;4991306;28;20264;-70
2022/05/06 07:13:17;;;;;;;39.60;27.70;;;17.70;50.60;;;;;;4974923;28;20490;-71
2022/05/06 07:15:44;;;;;;;41.57;26.20;;;17.40;51.70;;;;;;4990032;28;20433;-71
2022/05/06 07:18:09;;;;;;;46.67;26.47;;;16.50;55.10;;;;;;4990654;28;20623;-71
2022/05/06 07:20:35;;;;;;;43.03;28.20;;;16.80;58.50;;;;;;4990668;28;20445;-71
2022/05/06 07:23:03;;;;;;;44.30;26.10;;;17.20;54.40;;;;;;4991946;28;20564;-71
2022/05/06 07:25:29;;;;;;;45.30;25.20;;;16.90;55.00;;;;;;4991034;28;20466;-71
2022/05/06 07:27:55;;;;;;;40.90;26.60;;;17.30;53.60;;;;;;4990596;28;20553;-70
2022/05/06 07:30:21;;;;;;;47.13;25.73;;;17.40;53.00;;;;;;4987037;28;20437;-71
2022/05/06 07:32:47;;;;;;;33.47;22.50;;;17.50;52.00;;;;;;4990871;28;20182;-72
2022/05/06 07:35:13;;;;;;;29.20;22.13;;;17.20;52.60;;;;;;4991145;28;20436;-72
2022/05/06 07:37:38;;;;;;;30.83;21.90;;;17.30;51.80;;;;;;4991795;28;20292;-72
2022/05/06 07:40:06;;;;;;;29.20;20.47;;;17.20;52.30;;;;;;4990258;28;20223;-73
2022/05/06 07:42:33;;;;;;;30.73;20.30;;;17.20;52.30;;;;;;4990856;28;20188;-71
2022/05/06 07:44:59;;;;;;;34.37;21.67;;;17.40;50.80;;;;;;4991569;28;20471;-71
2022/05/06 07:47:25;;;;;;;35.50;21.97;;;17.40;51.60;;;;;;4989753;28;20460;-70
2022/05/06 07:49:51;;;;;;;33.17;21.03;;;17.40;51.00;;;;;;4990562;28;20553;-71
2022/05/06 07:52:17;;;;;;;35.20;22.43;;;17.60;49.10;;;;;;4991682;28;20210;-72
2022/05/06 07:54:42;;;;;;;33.93;21.40;;;17.70;48.90;;;;;;4991699;28;20456;-71
2022/05/06 07:57:08;;;;;;;31.27;20.70;;;17.60;48.40;;;;;;4990078;28;20535;-68
2022/05/06 07:59:34;;;;;;;33.07;20.87;;;17.30;48.90;;;;;;4988101;28;20186;-71
2022/05/06 08:04:48;;;;;;;34.70;20.87;;;17.30;50.50;;;;;;4991363;28;20704;-71
2022/05/06 08:07:14;;;;;;;30.43;20.97;;;17.50;49.40;;;;;;4991351;28;20938;-70
2022/05/06 08:09:40;;;;;;;29.30;19.67;;;17.70;50.50;;;;;;4989678;28;20445;-71
2022/05/06 08:12:06;;;;;;;33.10;21.30;;;17.70;49.20;;;;;;4983057;28;20435;-70
2022/05/06 08:14:32;;;;;;;27.30;20.10;;;17.70;49.10;;;;;;4991691;28;20186;-71
2022/05/06 08:16:59;;;;;;;33.60;20.13;;;17.70;47.60;;;;;;4989402;28;20499;-71
2022/05/06 08:19:25;;;;;;;29.03;18.00;;;17.80;47.00;;;;;;4988862;28;20652;-70
2022/05/06 08:21:51;;;;;;;30.80;18.23;;;17.80;45.70;;;;;;4990556;28;20440;-70
2022/05/06 08:24:17;;;;;;;33.50;18.00;;;17.50;46.30;;;;;;4990792;28;20271;-71
2022/05/06 08:26:43;;;;;;;31.70;18.33;;;17.30;47.40;;;;;;4991452;28;20475;-71
2022/05/06 08:29:09;;;;;;;37.10;18.80;;;17.60;46.30;;;;;;4990408;28;20433;-72
2022/05/06 08:31:37;;;;;;;24.50;17.40;;;17.60;46.60;;;;;;4991103;28;20421;-69
2022/05/06 08:34:08;;;;;;;36.10;17.67;;;17.60;45.90;;;;;;4990893;28;20186;-71
2022/05/06 08:36:39;;;;;;;31.20;19.67;;;17.40;44.30;;;;;;4991372;28;20417;-73
2022/05/06 08:39:05;;;;;;;33.90;18.57;;;17.60;45.10;;;;;;4990519;28;20476;-71
2022/05/06 08:41:31;;;;;;;28.93;16.60;;;17.70;44.50;;;;;;4991265;28;20425;-73
2022/05/06 08:50:50;;;;;;;26.60;17.77;;;17.90;44.40;;;;;;4989345;28;20950;-73
2022/05/06 08:52:30;;;;;;;27.37;17.73;;;18.20;42.30;;;;;;4991232;28;20438;-73
2022/05/06 08:54:56;;;;;;;29.40;18.70;;;16.90;46.10;;;;;;4991202;28;20505;-72
2022/05/06 08:57:22;;;;;;;26.47;16.77;;;17.30;46.90;;;;;;4991245;28;20480;-73
2022/05/06 08:59:52;;;;;;;31.07;17.30;;;17.40;45.80;;;;;;4987633;28;20191;-73
2022/05/06 09:02:18;;;;;;;31.50;18.30;;;17.90;44.40;;;;;;4994163;28;20413;-73
2022/05/06 09:04:44;;;;;;;28.83;18.30;;;18.30;43.90;;;;;;4990060;28;20440;-73
2022/05/06 09:07:17;;;;;;;30.60;17.43;;;18.50;43.20;;;;;;4994485;28;20449;-73
2022/05/06 09:09:43;;;;;;;25.27;16.20;;;18.70;42.00;;;;;;4992436;28;20449;-73
2022/05/06 09:17:50;;;;;;;25.00;15.80;;;18.80;41.50;;;;;;4963709;28;20557;-73
2022/05/06 09:20:20;;;;;;;26.90;16.57;;;19.10;40.80;;;;;;4974794;28;20419;-72
2022/05/06 09:22:47;;;;;;;25.63;17.60;;;19.20;40.50;;;;;;4988058;28;20194;-72
2022/05/06 09:25:42;;;;;;;25.80;16.40;;;19.10;40.10;;;;;;4994141;28;20427;-73
2022/05/06 09:28:32;;;;;;;27.47;15.63;;;18.40;38.20;;;;;;4994259;28;20498;-72
2022/05/06 09:31:04;;;;;;;22.53;16.03;;;17.50;44.10;;;;;;4993211;28;20437;-72
2022/05/06 09:33:41;;;;;;;25.60;16.60;;;18.10;44.30;;;;;;4988809;28;20434;-71
2022/05/06 09:36:37;;;;;;;22.67;15.40;;;18.60;40.70;;;;;;4993970;28;20403;-72
2022/05/06 09:39:10;;;;;;;31.00;16.40;;;19.10;39.00;;;;;;4952841;28;20446;-72
2022/05/06 09:41:39;;;;;;;23.90;15.47;;;19.50;38.70;;;;;;4968962;28;20409;-72
2022/05/06 09:44:08;;;;;;;20.70;13.60;;;18.90;36.30;;;;;;4965307;28;20433;-72
2022/05/06 09:46:35;;;;;;;28.23;15.40;;;18.80;41.70;;;;;;4954649;28;20448;-72
2022/05/06 09:49:03;;;;;;;26.60;16.03;;;18.50;39.20;;;;;;4952737;29;20566;-72
2022/05/06 09:51:35;;;;;;;23.10;15.10;;;18.90;40.70;;;;;;4952522;28;20414;-71
2022/05/06 09:54:05;;;;;;;26.87;15.53;;;18.40;37.80;;;;;;4952006;28;21023;-71
2022/05/06 09:56:32;;;;;;;22.73;14.10;;;18.10;41.00;;;;;;4955013;28;20801;-69
2022/05/06 09:58:57;;;;;;;23.17;13.93;;;18.60;40.30;;;;;;4951927;28;20474;-73
2022/05/06 10:01:23;;;;;;;21.10;14.80;;;18.30;41.60;;;;;;4951880;29;20473;-73
2022/05/06 10:03:52;;;;;;;25.20;14.13;;;18.70;39.50;;;;;;4956236;28;20208;-72
2022/05/06 10:06:24;;;;;;;22.03;14.40;;;19.30;38.40;;;;;;4953587;28;20948;-73
2022/05/06 10:08:53;;;;;;;20.87;14.47;;;19.80;36.20;;;;;;4952334;28;20442;-74
2022/05/06 10:11:24;;;;;;;23.17;15.30;;;19.80;35.80;;;;;;4952302;28;21064;-71
2022/05/06 10:13:51;;;;;;;21.63;14.40;;;19.00;37.10;;;;;;4952392;29;20838;-75
2022/05/06 10:16:16;;;;;;;19.13;13.80;;;18.70;40.20;;;;;;4985969;28;20444;-76
2022/05/06 10:18:44;;;;;;;25.57;14.73;;;19.10;37.20;;;;;;4990559;28;20479;-75
2022/05/06 10:21:11;;;;;;;21.87;15.00;;;19.80;37.40;;;;;;4989170;28;20176;-74
2022/05/06 10:23:55;;;;;;;24.23;14.10;;;19.90;36.60;;;;;;4991960;28;20416;-74
2022/05/06 10:26:40;;;;;;;19.10;13.93;;;20.10;34.70;;;;;;4992000;28;20482;-75
2022/05/06 10:34:58;;;;;;;28.20;14.83;;;20.40;33.30;;;;;;4986627;28;20420;-72
2022/05/06 10:37:34;;;;;;;21.83;14.37;;;20.70;34.10;;;;;;4991631;28;20477;-75
2022/05/06 10:40:24;;;;;;;22.60;14.20;;;20.70;32.40;;;;;;4993270;28;20403;-75
2022/05/06 10:42:50;;;;;;;19.93;13.00;;;20.90;32.40;;;;;;4992371;28;21072;-73
2022/05/06 10:45:27;;;;;;;22.13;13.20;;;21.10;31.40;;;;;;4992926;28;20483;-74
2022/05/06 10:47:53;;;;;;;19.53;13.93;;;21.10;31.60;;;;;;4991222;28;20612;-75
2022/05/06 10:50:21;;;;;;;26.40;13.63;;;21.50;31.40;;;;;;4992095;28;20873;-75
2022/05/06 10:52:48;;;;;;;24.70;13.37;;;21.60;31.40;;;;;;4991886;28;21044;-74
2022/05/06 10:55:15;;;;;;;29.33;13.73;;;21.60;30.30;;;;;;4988170;28;20438;-75
2022/05/06 10:57:49;;;;;;;21.43;13.70;;;21.30;30.20;;;;;;4990752;28;20486;-74
2022/05/06 11:00:16;;;;;;;32.23;13.50;;;21.50;30.00;;;;;;4991520;28;20514;-74
2022/05/06 11:02:42;;;;;;;18.93;14.60;;;21.40;30.50;;;;;;4991742;28;20824;-74
2022/05/06 11:05:10;;;;;;;21.67;14.53;;;21.50;30.00;;;;;;4989802;28;20439;-74
2022/05/06 11:07:39;;;;;;;20.10;13.60;;;21.80;29.50;;;;;;4989316;28;20547;-74
2022/05/06 11:10:12;;;;;;;24.13;14.60;;;22.10;29.30;;;;;;4985900;28;20442;-74
2022/05/06 11:12:49;;;;;;;22.93;13.93;;;22.00;29.50;;;;;;4989974;28;21004;-75
2022/05/06 11:15:18;;;;;;;23.33;13.77;;;22.30;29.00;;;;;;4991206;28;20435;-75
2022/05/06 11:17:45;;;;;;;20.50;14.33;;;22.10;28.90;;;;;;4991177;28;20470;-74
2022/05/06 11:20:18;;;;;;;17.13;13.20;;;21.70;29.20;;;;;;4990386;28;20545;-73
2022/05/06 11:22:58;;;;;;;20.90;13.70;;;21.70;29.20;;;;;;4991953;28;20417;-74
2022/05/06 11:25:30;;;;;;;18.90;13.60;;;20.20;29.90;;;;;;4988249;28;20796;-77
2022/05/06 11:27:58;;;;;;;17.67;13.10;;;20.00;33.60;;;;;;4991974;28;20876;-73
2022/05/06 11:30:24;;;;;;;20.50;13.00;;;20.50;31.70;;;;;;4972573;28;20477;-73
2022/05/06 11:32:53;;;;;;;21.80;14.10;;;20.70;31.70;;;;;;4989042;28;20535;-73
2022/05/06 11:35:26;;;;;;;17.10;12.70;;;20.80;31.00;;;;;;4991184;28;20439;-72
2022/05/06 11:37:52;;;;;;;16.33;12.20;;;21.20;31.00;;;;;;4991121;28;20478;-74
2022/05/06 11:42:52;;;;;;;18.73;13.13;;;21.60;29.30;;;;;;4989823;28;20183;-73
2022/05/06 11:48:09;;;;;;;22.10;12.60;;;22.10;28.90;;;;;;4990718;28;20216;-73
2022/05/06 11:50:36;;;;;;;27.73;13.87;;;22.00;29.70;;;;;;4982920;28;20448;-73
2022/05/06 11:53:08;;;;;;;18.20;12.67;;;20.90;29.00;;;;;;4991647;28;20421;-74
2022/05/06 11:55:36;;;;;;;22.70;13.33;;;20.90;33.30;;;;;;4989556;28;20494;-73
2022/05/06 11:58:05;;;;;;;17.33;12.47;;;21.20;30.00;;;;;;4980073;28;20467;-73
2022/05/06 12:00:32;;;;;;;21.80;13.40;;;21.30;30.50;;;;;;4991315;28;20438;-74
2022/05/06 12:03:04;;;;;;;20.40;12.80;;;20.40;30.20;;;;;;4988914;28;20826;-73
2022/05/06 12:05:32;;;;;;;22.03;13.50;;;20.40;32.70;;;;;;4988132;28;20499;-72
2022/05/06 12:07:58;;;;;;;27.30;12.50;;;20.40;30.30;;;;;;4989579;28;21058;-72
2022/05/06 12:10:24;;;;;;;18.90;13.13;;;20.70;31.50;;;;;;4983668;28;20421;-73
2022/05/06 12:12:57;;;;;;;21.10;12.40;;;20.60;32.60;;;;;;4989948;28;20291;-73
2022/05/06 12:15:31;;;;;;;19.80;13.30;;;20.70;30.50;;;;;;4990407;28;20457;-74
2022/05/06 12:18:11;;;;;;;20.50;14.10;;;20.90;29.60;;;;;;4991568;28;20848;-73
2022/05/06 12:20:42;;;;;;;19.83;12.43;;;20.70;30.60;;;;;;4991224;28;20422;-72
2022/05/06 12:23:10;;;;;;;18.47;12.27;;;20.80;30.80;;;;;;4991333;28;20401;-74
2022/05/06 12:25:39;;;;;;;19.80;12.90;;;21.10;30.80;;;;;;4991632;28;20480;-73
2022/05/06 12:28:09;;;;;;;19.43;12.27;;;21.00;29.40;;;;;;4991613;28;20429;-74
2022/05/06 12:30:37;;;;;;;18.07;12.00;;;20.70;31.10;;;;;;4991365;28;20456;-74
2022/05/06 12:33:02;;;;;;;17.90;11.73;;;20.40;29.70;;;;;;4993920;28;20865;-72
2022/05/06 12:35:28;;;;;;;17.47;12.17;;;20.50;31.20;;;;;;4995309;28;20412;-73
2022/05/06 12:37:55;;;;;;;18.90;12.47;;;20.70;31.00;;;;;;4995142;28;20224;-73
2022/05/06 12:40:31;;;;;;;18.73;11.63;;;21.10;31.00;;;;;;4994870;28;20178;-74
2022/05/06 12:43:10;;;;;;;21.90;11.87;;;21.60;31.30;;;;;;4994917;28;20961;-72
2022/05/06 12:45:37;;;;;;;18.43;12.17;;;21.70;28.40;;;;;;4995140;28;20516;-76
2022/05/06 12:50:47;;;;;;;18.00;12.20;;;21.80;27.80;;;;;;4994727;28;20419;-72
2022/05/06 12:53:13;;;;;;;17.77;10.87;;;21.10;30.10;;;;;;4994816;28;20427;-73
2022/05/06 12:55:41;;;;;;;16.93;11.70;;;21.10;29.00;;;;;;4994106;28;20182;-73
2022/05/06 12:58:07;;;;;;;17.13;11.40;;;21.30;29.20;;;;;;4994665;28;20206;-74
2022/05/06 13:00:32;;;;;;;17.87;12.50;;;21.10;29.10;;;;;;4994948;28;20922;-74
2022/05/06 13:02:58;;;;;;;17.47;11.37;;;21.10;29.40;;;;;;4993330;28;20264;-73
2022/05/06 13:05:24;;;;;;;18.13;12.60;;;21.40;30.40;;;;;;4994287;28;20193;-74
2022/05/06 13:07:50;;;;;;;17.30;11.73;;;21.80;29.00;;;;;;4994667;28;20469;-74
2022/05/06 13:10:15;;;;;;;17.80;11.20;;;22.30;27.60;;;;;;4994566;28;20241;-73
2022/05/06 13:12:41;;;;;;;16.43;12.17;;;22.30;27.20;;;;;;4994524;28;20615;-74
2022/05/06 13:15:07;;;;;;;25.00;12.10;;;22.00;29.40;;;;;;4994527;28;20199;-74